Time;durP1;ratioP1;P1;durP2;ratioP2;P2;SDS_P1;SDS_P2;PMS_P1;PMS_P2;Temp;Humidity;BMP_temperature;BMP_pressure;BME280_temperature;BME280_humidity;BME280_pressure;Samples;Min_cycle;Max_cycle;Signal;HPM_P1;HPM_P2
2021/07/02 00:02:06;;;;;;;2.50;1.60;;;25.30;70.70;;;;;;5066477;28;20239;-76
2021/07/02 00:04:33;;;;;;;4.45;1.50;;;25.20;70.60;;;;;;5102169;27;20197;-75
2021/07/02 00:07:00;;;;;;;4.45;1.70;;;25.20;70.60;;;;;;5084217;28;20208;-76
2021/07/02 00:09:26;;;;;;;5.68;1.70;;;25.30;71.80;;;;;;5082816;28;20210;-75
2021/07/02 00:11:53;;;;;;;2.13;1.70;;;25.30;71.30;;;;;;5105310;27;20291;-76
2021/07/02 00:14:19;;;;;;;3.05;1.60;;;25.30;71.00;;;;;;5086520;28;20537;-76
2021/07/02 00:16:45;;;;;;;2.35;1.70;;;25.30;70.60;;;;;;5087723;28;20190;-75
2021/07/02 00:19:12;;;;;;;4.90;1.60;;;25.30;70.30;;;;;;5088847;27;20857;-75
2021/07/02 00:21:38;;;;;;;2.35;1.70;;;25.30;69.80;;;;;;5083195;28;23000;-74
2021/07/02 00:24:05;;;;;;;8.73;1.63;;;25.30;71.00;;;;;;5081320;28;20567;-76
2021/07/02 00:26:32;;;;;;;5.93;1.73;;;25.30;70.10;;;;;;5066546;28;20382;-74
2021/07/02 00:28:58;;;;;;;3.42;1.60;;;25.30;70.00;;;;;;5082725;28;20197;-74
2021/07/02 00:31:25;;;;;;;3.22;1.90;;;25.40;69.60;;;;;;5083949;28;20206;-75
2021/07/02 00:33:51;;;;;;;4.68;2.35;;;25.40;70.20;;;;;;5078358;28;20905;-76
2021/07/02 00:36:17;;;;;;;3.47;2.28;;;25.40;70.40;;;;;;5079826;28;20282;-75
2021/07/02 00:38:45;;;;;;;4.80;2.10;;;25.40;70.60;;;;;;5096827;27;20244;-75
2021/07/02 00:41:11;;;;;;;3.40;2.47;;;25.50;71.40;;;;;;5094198;28;20277;-75
2021/07/02 00:43:53;;;;;;;9.37;2.67;;;25.50;72.00;;;;;;5080399;28;20186;-75
2021/07/02 00:46:24;;;;;;;5.20;2.67;;;25.50;72.40;;;;;;5065485;28;20187;-75
2021/07/02 00:48:51;;;;;;;4.25;2.78;;;25.50;73.20;;;;;;5110354;27;20294;-75
2021/07/02 00:51:19;;;;;;;5.88;2.75;;;25.50;72.70;;;;;;5059212;28;20249;-75
2021/07/02 00:53:47;;;;;;;6.00;3.30;;;25.60;72.70;;;;;;5078365;28;20190;-74
2021/07/02 00:56:19;;;;;;;7.50;3.15;;;25.60;72.40;;;;;;5080594;28;20193;-75
2021/07/02 00:58:46;;;;;;;4.85;2.67;;;25.60;72.20;;;;;;5085001;28;20251;-75
2021/07/02 01:01:17;;;;;;;5.45;2.90;;;25.60;72.00;;;;;;5080796;28;20216;-74
2021/07/02 01:03:45;;;;;;;4.45;2.78;;;25.60;72.20;;;;;;5078166;28;20654;-76
2021/07/02 01:06:16;;;;;;;3.83;2.55;;;25.60;71.80;;;;;;5083639;28;20842;-74
2021/07/02 01:08:44;;;;;;;6.57;3.20;;;25.60;71.70;;;;;;5079897;28;20697;-74
2021/07/02 01:11:13;;;;;;;6.18;2.80;;;25.60;71.60;;;;;;5081722;28;20247;-76
2021/07/02 01:13:39;;;;;;;5.07;2.80;;;25.60;71.60;;;;;;5102168;27;20253;-75
2021/07/02 01:16:05;;;;;;;11.63;3.35;;;25.60;71.90;;;;;;5066336;28;20785;-75
2021/07/02 01:18:32;;;;;;;4.18;2.80;;;25.50;71.90;;;;;;5081902;28;20228;-74
2021/07/02 01:20:58;;;;;;;10.00;3.25;;;25.50;72.00;;;;;;5080644;28;20217;-74
2021/07/02 01:23:27;;;;;;;7.22;3.08;;;25.50;72.20;;;;;;5075731;28;20750;-75
2021/07/02 01:25:54;;;;;;;11.73;3.20;;;25.50;71.80;;;;;;5093966;27;20198;-76
2021/07/02 01:28:21;;;;;;;4.15;2.90;;;25.40;72.10;;;;;;5099991;27;20255;-74
2021/07/02 01:30:48;;;;;;;5.57;2.80;;;25.40;71.90;;;;;;5079096;28;20214;-75
2021/07/02 01:33:16;;;;;;;8.32;2.75;;;25.40;72.30;;;;;;5100818;27;20322;-75
2021/07/02 01:35:42;;;;;;;8.98;2.95;;;25.40;72.70;;;;;;5080301;28;20180;-74
2021/07/02 01:38:09;;;;;;;6.72;3.05;;;25.30;72.40;;;;;;5083583;28;20951;-75
2021/07/02 01:40:36;;;;;;;8.52;3.10;;;25.40;73.00;;;;;;5096533;27;20235;-76
2021/07/02 01:43:03;;;;;;;5.63;2.85;;;25.30;72.80;;;;;;5082876;28;20198;-74
2021/07/02 01:45:30;;;;;;;4.82;2.90;;;25.30;73.00;;;;;;5081295;28;20236;-75
2021/07/02 01:47:57;;;;;;;6.97;2.72;;;25.30;72.90;;;;;;5097632;27;20186;-75
2021/07/02 01:50:25;;;;;;;5.73;2.93;;;25.30;73.10;;;;;;5080329;28;20214;-75
2021/07/02 01:52:53;;;;;;;8.02;3.13;;;25.20;72.80;;;;;;5102464;27;20178;-75
2021/07/02 01:55:22;;;;;;;4.20;2.90;;;25.20;73.10;;;;;;5070397;28;20268;-75
2021/07/02 01:57:48;;;;;;;7.55;3.10;;;25.20;73.20;;;;;;5082313;28;20178;-76
2021/07/02 02:00:17;;;;;;;5.93;2.85;;;25.20;73.30;;;;;;5079973;28;21099;-73
2021/07/02 02:02:44;;;;;;;8.77;3.00;;;25.20;73.40;;;;;;5097504;28;20193;-76
2021/07/02 02:05:10;;;;;;;5.90;2.78;;;25.20;73.50;;;;;;5065219;28;20178;-75
2021/07/02 02:07:37;;;;;;;6.82;2.90;;;25.10;73.30;;;;;;5080967;28;20187;-78
2021/07/02 02:10:05;;;;;;;5.05;2.75;;;25.10;73.70;;;;;;5086893;28;20182;-75
2021/07/02 02:12:31;;;;;;;9.10;3.00;;;25.10;73.70;;;;;;5088233;28;20235;-75
2021/07/02 02:14:58;;;;;;;6.20;2.63;;;25.10;73.50;;;;;;5084127;28;20197;-74
2021/07/02 02:17:24;;;;;;;8.23;3.17;;;25.20;73.80;;;;;;5086730;28;20188;-75
2021/07/02 02:19:50;;;;;;;4.88;2.70;;;25.20;73.30;;;;;;5087981;28;20230;-75
2021/07/02 02:22:17;;;;;;;8.52;2.85;;;25.20;73.00;;;;;;5068465;28;20293;-76
2021/07/02 02:24:43;;;;;;;6.85;2.92;;;25.20;72.80;;;;;;5085705;28;20224;-75
2021/07/02 02:27:10;;;;;;;7.55;2.97;;;25.30;73.10;;;;;;5114326;27;20238;-75
2021/07/02 02:29:36;;;;;;;13.13;2.92;;;25.30;72.90;;;;;;5084943;28;20218;-76
2021/07/02 02:32:02;;;;;;;9.23;3.40;;;25.30;72.80;;;;;;5061759;28;20206;-75
2021/07/02 02:34:29;;;;;;;7.30;3.17;;;25.40;72.70;;;;;;5100372;28;20236;-77
2021/07/02 02:36:55;;;;;;;8.07;2.90;;;25.40;72.70;;;;;;5101887;28;20975;-74
2021/07/02 02:39:21;;;;;;;10.55;2.75;;;25.50;72.40;;;;;;5080598;28;20186;-75
2021/07/02 02:41:48;;;;;;;8.10;2.75;;;25.50;72.00;;;;;;5115566;27;20191;-75
2021/07/02 02:44:14;;;;;;;7.43;3.00;;;25.50;72.00;;;;;;5083360;28;20190;-75
2021/07/02 02:46:41;;;;;;;5.00;2.70;;;25.50;72.00;;;;;;5088372;28;20191;-74
2021/07/02 02:49:07;;;;;;;12.10;3.88;;;25.50;71.90;;;;;;5083323;28;20982;-75
2021/07/02 02:51:33;;;;;;;8.05;2.88;;;25.50;71.90;;;;;;5098762;28;20543;-73
2021/07/02 02:53:59;;;;;;;5.45;2.95;;;25.40;71.50;;;;;;5099680;28;20270;-75
2021/07/02 02:56:26;;;;;;;7.20;3.15;;;25.40;71.80;;;;;;5065654;28;20200;-77
2021/07/02 02:58:52;;;;;;;10.00;2.90;;;25.40;71.70;;;;;;5077162;28;20720;-73
2021/07/02 03:01:18;;;;;;;9.95;2.95;;;25.40;71.60;;;;;;5082737;28;20363;-73
2021/07/02 03:03:44;;;;;;;13.95;2.97;;;25.30;71.50;;;;;;5085910;28;20661;-75
2021/07/02 03:06:11;;;;;;;9.65;2.83;;;25.40;71.80;;;;;;5066625;28;20273;-75
2021/07/02 03:08:38;;;;;;;9.70;2.93;;;25.30;71.40;;;;;;5063065;28;20624;-75
2021/07/02 03:11:05;;;;;;;10.15;2.97;;;25.30;71.40;;;;;;5084668;28;20206;-74
2021/07/02 03:13:31;;;;;;;8.75;3.10;;;25.40;71.30;;;;;;5099666;28;20290;-75
2021/07/02 03:15:58;;;;;;;16.37;3.10;;;25.40;71.00;;;;;;5097758;28;20193;-75
2021/07/02 03:18:24;;;;;;;7.28;3.08;;;25.40;71.00;;;;;;5084363;28;20197;-73
2021/07/02 03:20:50;;;;;;;10.55;2.80;;;25.50;71.30;;;;;;5080688;28;20216;-75
2021/07/02 03:23:16;;;;;;;10.45;3.13;;;25.50;71.50;;;;;;5103646;28;20217;-76
2021/07/02 03:25:43;;;;;;;11.07;3.10;;;25.50;71.50;;;;;;5084624;28;20194;-73
2021/07/02 03:28:09;;;;;;;8.13;2.88;;;25.50;71.40;;;;;;5095921;27;20189;-74
2021/07/02 03:30:36;;;;;;;10.75;3.00;;;25.50;71.50;;;;;;5103291;27;20717;-74
2021/07/02 03:33:02;;;;;;;8.02;2.80;;;25.50;72.00;;;;;;5108330;27;20181;-76
2021/07/02 03:35:29;;;;;;;12.00;3.20;;;25.60;72.50;;;;;;5091016;28;20189;-75
2021/07/02 03:37:56;;;;;;;10.30;3.20;;;25.60;72.50;;;;;;5089297;28;20186;-75
2021/07/02 03:40:22;;;;;;;9.10;3.35;;;25.60;72.70;;;;;;5104208;27;20184;-74
2021/07/02 03:42:48;;;;;;;11.35;3.50;;;25.60;72.40;;;;;;5088646;28;20182;-74
2021/07/02 03:45:15;;;;;;;6.47;2.90;;;25.60;72.20;;;;;;5086650;28;20702;-74
2021/07/02 03:47:41;;;;;;;9.63;3.20;;;25.70;72.40;;;;;;5104507;27;20255;-73
2021/07/02 03:50:08;;;;;;;11.98;2.75;;;25.70;73.00;;;;;;5087761;28;20228;-74
2021/07/02 03:52:34;;;;;;;12.13;2.97;;;25.60;73.20;;;;;;5101588;27;20264;-77
2021/07/02 03:55:00;;;;;;;11.45;3.10;;;25.70;73.10;;;;;;5104426;27;20189;-74
2021/07/02 03:57:27;;;;;;;9.38;3.13;;;25.80;73.30;;;;;;5085300;28;20296;-75
2021/07/02 03:59:53;;;;;;;9.05;3.00;;;25.80;72.90;;;;;;5080535;28;20273;-75
2021/07/02 04:02:20;;;;;;;9.95;3.08;;;25.80;73.00;;;;;;5090231;28;20193;-74
2021/07/02 04:04:47;;;;;;;12.30;3.08;;;25.80;73.10;;;;;;5071004;28;20217;-75
2021/07/02 04:07:15;;;;;;;9.57;3.25;;;25.80;73.70;;;;;;5107204;27;20193;-75
2021/07/02 04:09:41;;;;;;;8.10;2.80;;;25.80;74.10;;;;;;5085694;28;20343;-75
2021/07/02 04:12:09;;;;;;;6.80;2.70;;;25.90;74.20;;;;;;5085238;28;20213;-74
2021/07/02 04:14:36;;;;;;;6.57;2.50;;;25.90;73.50;;;;;;5087602;28;20213;-75
2021/07/02 04:17:03;;;;;;;6.22;2.55;;;25.90;74.40;;;;;;5102312;27;20270;-75
2021/07/02 04:19:29;;;;;;;5.10;2.60;;;26.00;72.80;;;;;;5087302;28;20242;-75
2021/07/02 04:21:55;;;;;;;4.70;2.38;;;25.90;71.70;;;;;;5107145;27;20174;-74
2021/07/02 04:24:21;;;;;;;4.75;2.92;;;26.00;74.70;;;;;;5088640;28;20228;-73
2021/07/02 04:26:48;;;;;;;5.03;2.40;;;26.00;74.60;;;;;;5070590;28;20222;-74
2021/07/02 04:29:14;;;;;;;5.80;2.55;;;26.00;72.70;;;;;;5099039;27;20236;-75
2021/07/02 04:31:40;;;;;;;4.25;2.38;;;26.00;73.60;;;;;;5095572;27;20236;-74
2021/07/02 04:34:07;;;;;;;3.42;2.25;;;26.10;74.20;;;;;;5101235;27;20193;-76
2021/07/02 04:36:35;;;;;;;5.95;2.40;;;26.10;74.30;;;;;;5083463;28;20260;-75
2021/07/02 04:39:01;;;;;;;8.07;2.67;;;26.10;75.30;;;;;;5069034;28;20667;-76
2021/07/02 04:41:27;;;;;;;6.35;2.50;;;26.20;74.60;;;;;;5084929;28;20251;-75
2021/07/02 04:43:54;;;;;;;4.57;2.40;;;26.20;75.60;;;;;;5100495;27;20201;-75
2021/07/02 04:46:22;;;;;;;4.57;2.60;;;26.20;75.90;;;;;;5084220;28;20190;-76
2021/07/02 04:48:48;;;;;;;5.43;2.40;;;26.20;76.20;;;;;;5101249;27;20518;-76
2021/07/02 04:51:14;;;;;;;4.90;2.42;;;26.20;76.20;;;;;;5082969;28;20217;-77
2021/07/02 04:53:43;;;;;;;7.93;2.70;;;26.30;76.40;;;;;;5113755;27;20642;-74
2021/07/02 04:56:13;;;;;;;4.30;2.25;;;26.30;76.30;;;;;;5098343;27;20276;-75
2021/07/02 04:58:42;;;;;;;6.47;2.88;;;26.40;76.30;;;;;;5069090;28;20227;-74
2021/07/02 05:01:12;;;;;;;6.65;2.58;;;26.40;76.60;;;;;;5073275;28;20182;-75
2021/07/02 05:03:39;;;;;;;4.85;2.25;;;26.40;75.10;;;;;;5092010;28;20213;-76
2021/07/02 05:06:07;;;;;;;9.00;2.72;;;26.60;73.80;;;;;;5083436;28;20182;-75
2021/07/02 05:08:34;;;;;;;7.45;2.50;;;26.70;74.80;;;;;;5065257;28;20191;-75
2021/07/02 05:11:01;;;;;;;7.57;2.38;;;26.60;76.00;;;;;;5107202;27;20217;-75
2021/07/02 05:13:27;;;;;;;9.23;2.58;;;26.60;75.90;;;;;;5086302;28;20323;-76
2021/07/02 05:15:54;;;;;;;4.25;2.40;;;26.70;73.50;;;;;;5086097;28;20315;-75
2021/07/02 05:18:20;;;;;;;6.20;2.70;;;26.80;75.60;;;;;;5089683;28;20192;-74
2021/07/02 05:20:47;;;;;;;3.45;2.50;;;26.80;74.80;;;;;;5101880;27;21105;-74
2021/07/02 05:23:13;;;;;;;5.32;3.10;;;26.90;73.00;;;;;;5103311;27;20293;-74
2021/07/02 05:25:39;;;;;;;5.18;2.67;;;27.00;74.00;;;;;;5091133;28;20200;-73
2021/07/02 05:28:06;;;;;;;7.18;2.97;;;27.10;73.80;;;;;;5109107;27;20264;-76
2021/07/02 05:30:32;;;;;;;8.13;2.67;;;27.30;72.00;;;;;;5082164;28;20253;-74
2021/07/02 05:32:58;;;;;;;7.40;3.00;;;27.30;72.40;;;;;;5098888;27;20186;-72
2021/07/02 05:35:25;;;;;;;8.73;2.80;;;27.30;73.10;;;;;;5085857;28;20918;-75
2021/07/02 05:37:51;;;;;;;8.25;2.85;;;27.20;73.50;;;;;;5088713;28;21467;-72
2021/07/02 05:40:19;;;;;;;4.03;2.53;;;27.30;72.90;;;;;;5087152;28;20235;-76
2021/07/02 05:42:46;;;;;;;5.55;2.80;;;27.20;73.90;;;;;;5088566;28;20293;-73
2021/07/02 05:45:13;;;;;;;9.50;2.75;;;27.40;73.70;;;;;;5090161;28;20186;-76
2021/07/02 05:47:49;;;;;;;7.45;2.85;;;27.40;72.90;;;;;;5106596;27;20234;-74
2021/07/02 05:50:18;;;;;;;5.25;2.83;;;27.40;72.90;;;;;;5105625;27;20212;-74
2021/07/02 05:52:46;;;;;;;5.93;2.78;;;27.50;73.90;;;;;;5074745;28;20861;-74
2021/07/02 05:55:13;;;;;;;8.20;2.55;;;27.60;71.40;;;;;;5102439;27;20204;-74
2021/07/02 05:57:41;;;;;;;5.38;2.75;;;27.90;72.50;;;;;;5089114;28;20181;-75
2021/07/02 06:00:09;;;;;;;6.75;2.90;;;27.70;70.80;;;;;;5090032;28;20197;-73
2021/07/02 06:02:36;;;;;;;5.07;2.70;;;27.80;71.70;;;;;;5075465;28;20232;-74
2021/07/02 06:05:03;;;;;;;4.32;2.50;;;27.80;71.90;;;;;;5063151;28;20178;-75
2021/07/02 06:07:47;;;;;;;5.82;2.30;;;27.70;69.60;;;;;;5078942;28;20220;-75
2021/07/02 06:10:15;;;;;;;8.25;2.80;;;27.90;70.70;;;;;;5091663;27;20194;-74
2021/07/02 06:12:43;;;;;;;5.78;2.58;;;27.90;69.40;;;;;;5081054;28;20187;-75
2021/07/02 06:15:12;;;;;;;11.65;2.65;;;27.80;71.00;;;;;;5099519;28;20187;-74
2021/07/02 06:17:40;;;;;;;3.47;2.40;;;27.80;71.70;;;;;;5082695;28;20186;-74
2021/07/02 06:20:08;;;;;;;9.43;2.58;;;27.80;70.70;;;;;;5096517;28;20526;-73
2021/07/02 06:22:36;;;;;;;6.43;2.50;;;28.00;68.50;;;;;;5078637;28;20193;-76
2021/07/02 06:25:07;;;;;;;4.40;2.00;;;28.10;71.00;;;;;;5078576;28;20315;-74
2021/07/02 06:27:34;;;;;;;4.28;2.53;;;28.00;69.80;;;;;;5082541;28;20187;-76
2021/07/02 06:30:04;;;;;;;14.32;2.90;;;28.00;69.60;;;;;;5059178;28;20571;-74
2021/07/02 06:32:30;;;;;;;15.52;3.47;;;29.70;73.90;;;;;;5090055;28;20214;-75
2021/07/02 06:34:57;;;;;;;9.13;3.20;;;30.40;76.20;;;;;;5074370;28;20182;-74
2021/07/02 06:37:24;;;;;;;12.18;3.53;;;30.60;89.10;;;;;;5068309;28;20182;-74
2021/07/02 06:39:50;;;;;;;5.78;3.05;;;30.50;91.10;;;;;;5100595;28;20186;-74
2021/07/02 06:42:17;;;;;;;9.32;3.13;;;30.00;88.00;;;;;;5069952;28;20186;-76
2021/07/02 06:44:43;;;;;;;4.15;3.20;;;30.30;92.80;;;;;;5102117;28;20199;-76
2021/07/02 06:47:09;;;;;;;8.63;3.20;;;30.20;93.30;;;;;;5076238;28;20183;-74
2021/07/02 06:49:38;;;;;;;14.75;3.72;;;30.20;94.20;;;;;;5081813;28;20209;-74
2021/07/02 06:52:07;;;;;;;8.57;3.22;;;30.10;94.40;;;;;;5102392;28;20662;-74
2021/07/02 06:54:35;;;;;;;10.13;3.17;;;30.10;94.40;;;;;;5089980;28;20190;-73
2021/07/02 06:57:04;;;;;;;8.90;3.25;;;30.10;93.00;;;;;;5071895;28;20642;-74
2021/07/02 06:59:34;;;;;;;10.10;3.10;;;29.90;94.00;;;;;;5070071;28;20335;-74
2021/07/02 07:02:01;;;;;;;7.60;3.40;;;30.00;93.60;;;;;;5090249;28;20653;-75
2021/07/02 07:04:34;;;;;;;7.85;3.63;;;30.20;93.20;;;;;;5066253;28;20185;-75
2021/07/02 07:07:02;;;;;;;9.25;3.22;;;30.20;92.60;;;;;;5081984;28;20752;-73
2021/07/02 07:09:28;;;;;;;6.43;3.40;;;30.00;92.30;;;;;;5090991;28;20200;-74
2021/07/02 07:11:56;;;;;;;11.18;3.33;;;30.20;92.20;;;;;;5092391;28;20217;-76
2021/07/02 07:14:22;;;;;;;16.15;3.10;;;30.30;91.80;;;;;;5073636;28;20269;-74
2021/07/02 07:16:49;;;;;;;6.47;2.90;;;30.50;91.50;;;;;;5095604;28;20904;-74
2021/07/02 07:19:16;;;;;;;12.63;3.00;;;30.40;90.80;;;;;;5090241;28;20195;-76
2021/07/02 07:21:42;;;;;;;10.50;3.28;;;30.70;91.10;;;;;;5103142;27;20282;-76
2021/07/02 07:24:08;;;;;;;11.48;3.30;;;30.60;90.80;;;;;;5108040;27;20860;-76
2021/07/02 07:26:35;;;;;;;6.10;3.28;;;30.80;90.40;;;;;;5086988;28;20193;-75
2021/07/02 07:29:01;;;;;;;7.80;3.35;;;30.80;90.10;;;;;;5087892;28;20834;-75
2021/07/02 07:31:28;;;;;;;10.55;3.92;;;30.70;91.10;;;;;;5091403;28;20677;-74
2021/07/02 07:33:56;;;;;;;9.20;2.97;;;30.60;91.00;;;;;;5102337;27;20185;-75
2021/07/02 07:36:23;;;;;;;7.13;3.30;;;30.90;91.40;;;;;;5085661;28;20228;-74
2021/07/02 07:38:50;;;;;;;5.00;3.30;;;31.10;92.60;;;;;;5084492;28;20193;-75
2021/07/02 07:41:18;;;;;;;11.07;3.60;;;31.00;92.20;;;;;;5086484;28;20209;-76
2021/07/02 07:43:45;;;;;;;7.60;3.60;;;31.10;93.20;;;;;;5073903;28;20190;-74
2021/07/02 07:46:11;;;;;;;5.10;2.92;;;31.10;93.60;;;;;;5087435;28;20182;-76
2021/07/02 07:48:38;;;;;;;8.98;3.47;;;31.10;92.80;;;;;;5089293;28;20198;-75
2021/07/02 07:51:16;;;;;;;10.60;3.60;;;31.40;94.00;;;;;;5071779;28;20217;-77
2021/07/02 07:53:43;;;;;;;10.80;4.13;;;31.40;94.00;;;;;;5089322;28;20196;-76
2021/07/02 07:56:10;;;;;;;12.98;3.47;;;31.40;95.40;;;;;;5071620;28;20559;-74
2021/07/02 07:58:38;;;;;;;10.75;3.75;;;31.60;95.60;;;;;;5106425;27;20351;-75
2021/07/02 08:01:04;;;;;;;9.15;3.72;;;31.80;96.50;;;;;;5090929;28;20182;-76
2021/07/02 08:03:30;;;;;;;5.82;3.00;;;31.70;96.20;;;;;;5075294;28;20269;-74
2021/07/02 08:05:57;;;;;;;9.68;3.47;;;31.80;95.30;;;;;;5089801;28;20201;-75
2021/07/02 08:08:23;;;;;;;11.70;3.58;;;31.80;97.50;;;;;;5089488;27;20233;-76
2021/07/02 08:10:50;;;;;;;8.20;3.67;;;31.70;97.00;;;;;;5084309;28;20698;-77
2021/07/02 08:13:17;;;;;;;8.48;3.75;;;32.00;97.50;;;;;;5084680;28;20246;-77
2021/07/02 08:15:44;;;;;;;10.77;3.78;;;32.10;98.20;;;;;;5087006;28;20243;-76
2021/07/02 08:18:10;;;;;;;10.70;4.10;;;32.20;98.60;;;;;;5092888;28;20189;-77
2021/07/02 08:20:37;;;;;;;13.57;4.30;;;32.20;99.10;;;;;;5082233;28;20269;-74
2021/07/02 08:23:08;;;;;;;13.73;3.97;;;32.10;99.80;;;;;;5086949;28;20186;-74
2021/07/02 08:25:39;;;;;;;18.13;4.43;;;32.10;99.90;;;;;;5088177;28;20225;-75
2021/07/02 08:30:52;;;;;;;14.40;4.47;;;32.20;99.90;;;;;;5080529;28;20202;-77
2021/07/02 08:33:19;;;;;;;9.52;4.45;;;32.30;99.90;;;;;;5070685;28;20185;-76
2021/07/02 08:35:49;;;;;;;11.77;4.28;;;32.10;99.90;;;;;;5085482;28;20677;-74
2021/07/02 08:38:18;;;;;;;13.93;4.60;;;32.20;99.90;;;;;;5084060;28;20686;-74
2021/07/02 08:40:45;;;;;;;13.38;4.32;;;32.10;99.90;;;;;;5083809;28;20197;-77
2021/07/02 08:43:14;;;;;;;15.27;4.68;;;32.20;99.90;;;;;;5086600;28;20589;-75
2021/07/02 08:45:41;;;;;;;12.35;4.90;;;32.10;99.90;;;;;;5078693;28;20211;-74
2021/07/02 08:48:08;;;;;;;14.55;4.70;;;32.30;99.90;;;;;;5088675;28;20189;-75
2021/07/02 08:50:37;;;;;;;9.45;4.60;;;32.20;99.90;;;;;;5066538;28;20586;-76
2021/07/02 08:53:06;;;;;;;8.63;4.78;;;32.40;99.90;;;;;;5087768;28;20197;-75
2021/07/02 08:55:34;;;;;;;7.20;4.20;;;32.50;99.90;;;;;;5081144;28;20646;-77
2021/07/02 08:58:01;;;;;;;13.32;4.57;;;32.50;99.90;;;;;;5083486;28;20192;-76
2021/07/02 09:00:28;;;;;;;7.95;4.30;;;32.70;99.90;;;;;;5097968;27;20202;-75
2021/07/02 09:02:54;;;;;;;11.20;4.30;;;32.80;99.90;;;;;;5101061;27;20215;-76
2021/07/02 09:05:33;;;;;;;14.57;4.35;;;32.70;99.90;;;;;;5078741;28;20197;-73
2021/07/02 09:08:21;;;;;;;9.13;4.05;;;32.70;99.90;;;;;;5067877;28;20174;-77
2021/07/02 09:10:48;;;;;;;18.05;4.93;;;32.60;99.90;;;;;;5075507;28;20747;-76
2021/07/02 09:13:16;;;;;;;9.90;4.35;;;33.00;99.90;;;;;;5082946;28;20900;-74
2021/07/02 09:15:48;;;;;;;12.40;4.63;;;32.90;99.90;;;;;;5101893;27;20191;-76
2021/07/02 09:18:17;;;;;;;9.63;4.15;;;32.80;99.90;;;;;;5098359;27;20209;-76
2021/07/02 09:20:47;;;;;;;10.20;4.15;;;33.00;99.90;;;;;;5101330;27;20220;-74
2021/07/02 09:23:16;;;;;;;14.05;4.70;;;33.00;99.90;;;;;;5067687;28;20224;-77
2021/07/02 09:25:49;;;;;;;10.10;4.20;;;32.90;99.90;;;;;;5099169;27;20190;-76
2021/07/02 09:28:19;;;;;;;10.65;4.32;;;33.10;99.90;;;;;;5097571;27;20183;-76
2021/07/02 09:30:48;;;;;;;12.00;4.60;;;33.10;99.90;;;;;;5083801;28;20212;-72
2021/07/02 09:33:22;;;;;;;9.63;4.30;;;33.10;99.90;;;;;;5082034;28;20220;-75
2021/07/02 09:35:56;;;;;;;9.80;4.40;;;33.10;99.90;;;;;;5082800;28;20216;-75
2021/07/02 09:38:41;;;;;;;12.90;4.72;;;33.00;99.90;;;;;;5103943;27;20256;-76
2021/07/02 09:41:09;;;;;;;9.95;4.63;;;33.10;99.90;;;;;;5071662;28;20320;-76
2021/07/02 09:43:38;;;;;;;11.93;4.68;;;33.10;99.90;;;;;;5086441;28;20190;-75
2021/07/02 09:46:08;;;;;;;12.02;4.55;;;33.10;99.90;;;;;;5064682;28;20528;-76
2021/07/02 09:48:43;;;;;;;10.48;5.10;;;33.00;99.90;;;;;;5076714;28;20849;-77
2021/07/02 09:51:11;;;;;;;16.58;5.07;;;32.90;99.90;;;;;;5080995;28;20213;-77
2021/07/02 09:53:40;;;;;;;17.55;5.20;;;33.20;99.90;;;;;;5099050;28;20190;-77
2021/07/02 09:56:17;;;;;;;11.55;4.50;;;33.40;99.90;;;;;;5067206;28;20182;-75
2021/07/02 09:58:43;;;;;;;13.98;4.50;;;33.30;99.90;;;;;;5079371;28;20217;-76
2021/07/02 10:01:22;;;;;;;16.17;4.85;;;33.40;99.90;;;;;;5097140;28;20194;-78
2021/07/02 10:03:48;;;;;;;13.45;4.53;;;33.40;99.90;;;;;;5080918;28;20189;-75
2021/07/02 10:06:21;;;;;;;14.80;4.28;;;33.50;99.90;;;;;;5097139;28;20234;-76
2021/07/02 10:08:48;;;;;;;11.82;4.45;;;33.70;99.90;;;;;;5081865;28;20272;-74
2021/07/02 10:11:15;;;;;;;12.88;4.28;;;33.90;99.90;;;;;;5095443;28;20727;-74
2021/07/02 10:13:46;;;;;;;13.93;4.40;;;34.20;99.90;;;;;;5076761;28;20214;-73
2021/07/02 10:16:14;;;;;;;13.13;4.53;;;34.20;99.90;;;;;;5081189;28;20181;-75
2021/07/02 10:18:56;;;;;;;14.90;4.40;;;34.50;99.90;;;;;;5096056;28;20197;-75
2021/07/02 10:21:25;;;;;;;13.07;4.72;;;34.60;99.90;;;;;;5079682;28;20260;-76
2021/07/02 10:23:59;;;;;;;12.02;4.15;;;34.50;99.90;;;;;;5064294;28;20657;-77
2021/07/02 10:26:30;;;;;;;16.90;4.63;;;34.70;99.90;;;;;;5082195;28;20196;-74
2021/07/02 10:28:57;;;;;;;13.82;4.63;;;35.00;99.90;;;;;;5077986;28;20829;-75
2021/07/02 10:31:23;;;;;;;14.98;4.38;;;35.10;99.90;;;;;;5082189;28;20739;-76
2021/07/02 10:33:55;;;;;;;16.00;4.50;;;35.10;97.50;;;;;;5078368;28;20670;-76
2021/07/02 10:36:23;;;;;;;11.07;3.97;;;35.00;96.60;;;;;;5071320;28;20190;-76
2021/07/02 10:38:52;;;;;;;10.68;4.22;;;34.90;96.40;;;;;;5091622;28;20181;-75
2021/07/02 10:41:26;;;;;;;16.02;4.65;;;34.90;94.90;;;;;;5101572;27;20224;-75
2021/07/02 10:44:11;;;;;;;9.77;4.15;;;35.10;95.10;;;;;;5080342;28;20185;-77
2021/07/02 10:47:01;;;;;;;11.02;4.50;;;34.70;91.00;;;;;;5082193;28;20198;-75
2021/07/02 10:49:43;;;;;;;17.33;4.18;;;34.90;77.20;;;;;;5065850;28;20208;-76
2021/07/02 10:52:25;;;;;;;15.88;4.18;;;35.20;76.60;;;;;;5081734;28;20741;-75
2021/07/02 10:54:54;;;;;;;17.77;4.28;;;35.00;75.20;;;;;;5082485;28;20186;-78
2021/07/02 10:57:24;;;;;;;15.98;4.03;;;34.60;73.50;;;;;;5080507;28;20182;-77
2021/07/02 10:59:54;;;;;;;13.68;4.20;;;35.20;65.10;;;;;;5081641;28;20190;-74
2021/07/02 11:02:23;;;;;;;13.68;3.20;;;34.60;70.10;;;;;;5066855;28;20178;-77
2021/07/02 11:04:59;;;;;;;9.57;3.38;;;34.60;70.70;;;;;;5079555;28;20682;-76
2021/07/02 11:07:25;;;;;;;11.77;4.00;;;34.10;73.80;;;;;;5085254;28;20183;-75
2021/07/02 11:10:01;;;;;;;13.32;3.50;;;33.80;73.70;;;;;;5101303;27;20191;-76
2021/07/02 11:12:57;;;;;;;16.23;3.58;;;33.60;73.50;;;;;;5082135;28;20287;-76
2021/07/02 11:15:24;;;;;;;25.27;3.90;;;33.60;68.30;;;;;;5061447;28;20768;-75
2021/07/02 11:18:11;;;;;;;16.98;3.60;;;34.20;66.00;;;;;;5082402;28;20186;-76
2021/07/02 11:20:40;;;;;;;12.88;3.47;;;34.10;70.30;;;;;;5080046;28;20191;-77
2021/07/02 11:23:17;;;;;;;14.73;4.00;;;33.70;72.30;;;;;;5082235;28;20186;-75
2021/07/02 11:28:47;;;;;;;13.07;3.83;;;34.20;63.80;;;;;;5098297;27;20269;-76
2021/07/02 11:31:14;;;;;;;9.93;3.42;;;34.10;70.40;;;;;;5120657;27;20316;-75
2021/07/02 11:33:41;;;;;;;18.30;3.92;;;34.10;65.60;;;;;;5080171;28;20225;-75
2021/07/02 11:36:15;;;;;;;15.43;3.63;;;34.20;64.00;;;;;;5101599;27;20900;-77
2021/07/02 11:38:55;;;;;;;11.23;3.60;;;34.40;65.70;;;;;;5083283;28;20186;-74
2021/07/02 11:41:25;;;;;;;18.23;3.22;;;33.70;66.40;;;;;;5085025;28;20818;-77
2021/07/02 11:43:53;;;;;;;10.02;3.58;;;33.70;66.20;;;;;;5077495;28;20190;-76
2021/07/02 11:46:20;;;;;;;21.85;4.18;;;33.30;67.70;;;;;;5093856;27;20201;-76
2021/07/02 11:48:55;;;;;;;19.42;3.67;;;33.50;59.10;;;;;;5082543;28;21027;-76
2021/07/02 11:51:28;;;;;;;14.00;3.45;;;33.80;61.90;;;;;;5082144;28;20668;-76
2021/07/02 11:54:05;;;;;;;17.67;3.85;;;33.90;62.90;;;;;;5096486;27;20197;-76
2021/07/02 11:56:35;;;;;;;18.90;4.05;;;33.90;63.20;;;;;;5099942;27;20186;-76
2021/07/02 11:59:05;;;;;;;17.85;4.03;;;34.20;61.00;;;;;;5085894;28;20279;-77
2021/07/02 12:01:49;;;;;;;22.52;4.43;;;34.50;58.80;;;;;;5101500;27;20658;-76
2021/07/02 12:04:21;;;;;;;19.13;4.25;;;34.20;62.00;;;;;;5069112;28;20255;-75
2021/07/02 12:06:53;;;;;;;11.18;3.83;;;34.10;58.80;;;;;;5065830;28;20202;-75
2021/07/02 12:09:27;;;;;;;13.55;3.75;;;33.70;63.30;;;;;;5082234;28;20284;-76
2021/07/02 12:11:59;;;;;;;12.23;3.65;;;33.90;58.40;;;;;;5070173;28;20227;-75
2021/07/02 12:14:29;;;;;;;16.00;3.78;;;33.60;63.90;;;;;;5079932;28;20178;-75
2021/07/02 12:16:59;;;;;;;17.67;4.03;;;33.40;64.00;;;;;;5078116;28;20194;-75
2021/07/02 12:19:29;;;;;;;11.20;3.90;;;34.50;58.60;;;;;;5068585;28;20239;-75
2021/07/02 12:22:06;;;;;;;20.65;3.90;;;33.80;62.10;;;;;;5097637;27;20214;-76
2021/07/02 12:24:41;;;;;;;14.23;3.90;;;34.00;59.50;;;;;;5083881;28;20263;-76
2021/07/02 12:27:13;;;;;;;16.90;4.10;;;34.20;60.20;;;;;;5066834;28;20601;-76
2021/07/02 12:29:41;;;;;;;12.75;4.47;;;34.40;59.70;;;;;;5104602;27;20320;-75
2021/07/02 12:32:11;;;;;;;20.15;4.03;;;35.00;60.20;;;;;;5114678;27;20217;-76
2021/07/02 12:34:42;;;;;;;12.85;4.05;;;34.10;63.60;;;;;;5080280;28;20575;-76
2021/07/02 12:37:20;;;;;;;16.70;4.68;;;34.20;63.70;;;;;;5080815;28;20603;-76
2021/07/02 12:39:51;;;;;;;13.43;3.58;;;34.80;67.50;;;;;;5062679;28;20189;-77
2021/07/02 12:42:37;;;;;;;14.20;4.05;;;35.00;67.10;;;;;;5101617;27;20196;-74
2021/07/02 12:45:13;;;;;;;12.38;4.20;;;34.30;66.90;;;;;;5080015;28;20190;-77
2021/07/02 12:47:42;;;;;;;10.68;3.33;;;34.20;65.50;;;;;;5074915;28;20220;-75
2021/07/02 12:50:20;;;;;;;10.38;4.53;;;34.70;65.50;;;;;;5080700;28;20235;-77
2021/07/02 12:55:42;;;;;;;16.77;4.45;;;34.50;64.00;;;;;;5089290;28;20231;-76
2021/07/02 12:58:09;;;;;;;15.63;4.55;;;34.50;63.50;;;;;;5100101;27;20194;-74
2021/07/02 13:00:36;;;;;;;26.13;5.13;;;34.50;60.90;;;;;;5084385;28;20190;-75